West Palm Beach, FL (33404)

12:36 PM EST on December 09, 2016 (GMT -0500)
Rybovich Boat Company | | Change Station

Elev 10 ft 26.75 °N, 80.05 °W | Updated 26 seconds ago

Overcast
Overcast
68.3 °F
Feels Like 68.3 °F
N
6.8
Wind Variable Wind from NNE
Gusts 18.0 mph

Today
High -- | Low -- °F
--% Chance of Precip.
Yesterday
High -- | Low -- °F
Precip. -- in
Pressure 30.21 in
Visibility 7.0 miles
Clouds Mostly Cloudy 1200 ft
Mostly Cloudy 2700 ft
Mostly Cloudy 9000 ft
Dew Point 65 °F
Humidity 90%
Rainfall 0.02 in
Snow Depth Not available.
6:57 AM 5:27 PM
Waxing Gibbous, 75% visible
SPECI KPBI 091727Z 35013G19KT 7SM BKN012 BKN027 BKN090 20/18 A3021 RMK AO2 T02000178
Pressure 30.21 in
Visibility 7.0 miles
Clouds Mostly Cloudy 1200 ft
Mostly Cloudy 2700 ft
Mostly Cloudy 9000 ft
Dew Point 65 °F
Humidity 90%
Rainfall 0.02 in
Snow Depth Not available.
6:57 AM 5:27 PM
Waxing Gibbous, 75% visible
SPECI KPBI 091727Z 35013G19KT 7SM BKN012 BKN027 BKN090 20/18 A3021 RMK AO2 T02000178

10-Day Weather Forecast

Almanac

Astronomy

Dec. 09, 2016 Rise Set
Actual Time
Civil Twilight
Nautical Twilight
Astronomical Twilight
Moon
Length of Visible Light
Length of Day
Tomorrow will be .
, % of the Moon is Illuminated

Today's Extremes

State Highs State Lows

Community

WunderPhotos

Upload Photos

1,956,462 photos uploaded!

WunderBlog® & News

Nearby

Air Quality

  Air Quality AQ Index Pollutant
Not available.

Snow Depth

Station Depth Elevation

Earthquake Activity

City Distance Mag. Time & Date
Minimum magnitude displayed is 2.5.

Coastal Water Temperatures

Place Temperature

Stations

Nearby Weather Stations

Station Location Temp. Windchill Dew Point Humidity Wind Precip. Elev Updated Type
                   

Watches & Warnings

There are currently no watches in effect.